createdAt,value
2023-11-01T00:01:30.707Z,96725.56
2023-11-01T00:03:58.595Z,96724.50
2023-11-01T00:06:27.740Z,96721.03
2023-11-01T00:08:56.717Z,96726.63
2023-11-01T00:11:24.853Z,96718.16
2023-11-01T00:13:52.622Z,96723.25
2023-11-01T00:16:20.496Z,96716.44
2023-11-01T00:18:48.225Z,96722.19
2023-11-01T00:21:16.211Z,96716.38
2023-11-01T00:23:45.421Z,96719.34
2023-11-01T00:26:13.218Z,96717.91
2023-11-01T00:28:40.997Z,96718.38
2023-11-01T00:31:09.075Z,96722.81
2023-11-01T00:33:37.484Z,96725.69
2023-11-01T00:36:06.166Z,96728.69
2023-11-01T00:38:36.788Z,96713.13
2023-11-01T00:41:06.721Z,96715.13
2023-11-01T00:43:34.630Z,96718.00
2023-11-01T00:46:03.361Z,96721.22
2023-11-01T00:48:31.227Z,96718.69
2023-11-01T00:51:01.383Z,96721.44
2023-11-01T00:53:32.272Z,96733.88
2023-11-01T00:56:00.159Z,96723.38
2023-11-01T00:58:29.196Z,96720.38
2023-11-01T01:00:56.913Z,96723.72
2023-11-01T01:03:24.864Z,96726.25
2023-11-01T01:05:52.669Z,96716.19
2023-11-01T01:08:20.462Z,96711.91
2023-11-01T01:10:48.527Z,96713.56
2023-11-01T01:13:16.718Z,96712.91
2023-11-01T01:15:45.876Z,96715.66
2023-11-01T01:18:15.753Z,96706.44
2023-11-01T01:20:43.609Z,96701.66
2023-11-01T01:23:11.437Z,96692.91
2023-11-01T01:25:39.132Z,96684.88
2023-11-01T01:28:06.946Z,96678.06
2023-11-01T01:30:34.733Z,96668.84
2023-11-01T01:33:03.991Z,96676.72
2023-11-01T01:35:32.153Z,96666.81
2023-11-01T01:38:00.049Z,96672.22
2023-11-01T01:40:28.067Z,96671.00
2023-11-01T01:42:55.905Z,96674.72
2023-11-01T01:45:23.754Z,96671.00
2023-11-01T01:47:51.557Z,96663.09
2023-11-01T01:50:22.384Z,96649.97
2023-11-01T01:52:53.097Z,96643.84
2023-11-01T01:55:20.705Z,96652.34
2023-11-01T01:57:48.412Z,96650.31
2023-11-01T02:00:17.300Z,96655.09
2023-11-01T02:02:45.274Z,96653.53
2023-11-01T02:05:15.638Z,96652.22
2023-11-01T02:07:45.619Z,96649.47
2023-11-01T02:10:15.287Z,96649.81
2023-11-01T02:12:42.955Z,96642.03
2023-11-01T02:15:10.910Z,96644.66
2023-11-01T02:17:40.690Z,96638.44
2023-11-01T02:20:11.761Z,96631.06
2023-11-01T02:22:40.039Z,96626.50
2023-11-01T02:25:09.949Z,96631.97
2023-11-01T02:27:37.850Z,96614.69
2023-11-01T02:30:06.288Z,96618.31
2023-11-01T02:32:36.518Z,96621.41
2023-11-01T02:35:06.238Z,96602.03
2023-11-01T02:37:37.073Z,96596.50
2023-11-01T02:40:05.050Z,96603.19
2023-11-01T02:42:34.169Z,96590.16
2023-11-01T02:45:01.840Z,96582.75
2023-11-01T02:47:31.982Z,96589.53
2023-11-01T02:49:59.572Z,96587.41
2023-11-01T02:52:27.210Z,96584.13
2023-11-01T02:54:54.976Z,96582.69
2023-11-01T02:57:24.740Z,96579.19
2023-11-01T02:59:54.733Z,96576.91
2023-11-01T03:02:22.360Z,96572.50
2023-11-01T03:04:49.968Z,96582.47
2023-11-01T03:07:17.520Z,96571.09
2023-11-01T03:09:45.251Z,96561.72
2023-11-01T03:12:12.899Z,96572.50
2023-11-01T03:14:40.587Z,96563.38
2023-11-01T03:17:10.830Z,96573.25
2023-11-01T03:19:39.165Z,96570.41
2023-11-01T03:22:07.191Z,96567.31
2023-11-01T03:24:35.360Z,96568.16
2023-11-01T03:27:02.983Z,96566.50
2023-11-01T03:29:31.151Z,96566.72
2023-11-01T03:31:58.801Z,96558.56
2023-11-01T03:34:27.772Z,96564.56
2023-11-01T03:36:55.356Z,96563.38
2023-11-01T03:39:22.935Z,96556.38
2023-11-01T03:41:50.549Z,96552.34
2023-11-01T03:44:20.797Z,96548.75
2023-11-01T03:46:48.690Z,96541.06
2023-11-01T03:49:18.523Z,96547.38
2023-11-01T03:51:47.490Z,96552.47
2023-11-01T03:54:15.047Z,96533.16
2023-11-01T03:56:45.680Z,96542.97
2023-11-01T03:59:13.545Z,96537.22
2023-11-01T04:01:41.256Z,96539.53
2023-11-01T04:04:09.196Z,96539.41
2023-11-01T04:06:38.454Z,96526.94
2023-11-01T04:09:08.794Z,96537.94
2023-11-01T04:11:39.156Z,96528.75
2023-11-01T04:14:08.117Z,96535.88
2023-11-01T04:16:38.196Z,96532.47
2023-11-01T04:19:07.162Z,96535.25
2023-11-01T04:21:34.866Z,96540.13
2023-11-01T04:24:10.828Z,96534.84
2023-11-01T04:26:40.519Z,96536.31
2023-11-01T04:29:08.426Z,96536.53
2023-11-01T04:31:36.075Z,96538.31
2023-11-01T04:34:04.085Z,96535.59
2023-11-01T04:36:31.892Z,96530.94
2023-11-01T04:38:59.837Z,96530.16
2023-11-01T04:41:29.572Z,96520.19
2023-11-01T04:43:57.318Z,96529.88
2023-11-01T04:46:25.131Z,96531.06
2023-11-01T04:48:52.819Z,96520.09
2023-11-01T04:51:20.733Z,96529.69
2023-11-01T04:53:49.466Z,96525.06
2023-11-01T04:56:17.145Z,96528.59
2023-11-01T04:58:46.074Z,96520.09
2023-11-01T05:01:14.295Z,96519.56
2023-11-01T05:03:42.001Z,96523.16
2023-11-01T05:06:10.201Z,96514.53
2023-11-01T05:08:37.825Z,96518.19
2023-11-01T05:11:06.425Z,96515.16
2023-11-01T05:13:34.178Z,96505.09
2023-11-01T05:16:03.159Z,96500.91
2023-11-01T05:18:30.779Z,96497.44
2023-11-01T05:20:58.413Z,96499.13
2023-11-01T05:23:26.035Z,96499.13
2023-11-01T05:25:53.673Z,96506.50
2023-11-01T05:28:21.272Z,96508.75
2023-11-01T05:30:48.909Z,96506.91
2023-11-01T05:33:20.749Z,96503.41
2023-11-01T05:35:49.738Z,96508.75
2023-11-01T05:38:17.321Z,96510.19
2023-11-01T05:40:44.989Z,96499.88
2023-11-01T05:43:12.623Z,96502.06
2023-11-01T05:45:40.174Z,96501.78
2023-11-01T05:48:09.980Z,96500.50
2023-11-01T05:50:41.850Z,96503.09
2023-11-01T05:53:11.810Z,96505.03
2023-11-01T05:55:54.242Z,96495.03
2023-11-01T05:58:27.629Z,96499.22
2023-11-01T06:00:55.498Z,96494.47
2023-11-01T06:03:26.229Z,96498.50
2023-11-01T06:05:59.167Z,96488.69
2023-11-01T06:08:27.687Z,96485.84
2023-11-01T06:10:55.797Z,96484.06
2023-11-01T06:13:23.469Z,96491.72
2023-11-01T06:15:52.753Z,96487.84
2023-11-01T06:18:22.011Z,96486.94
2023-11-01T06:20:49.688Z,96489.75
2023-11-01T06:23:18.811Z,96494.03
2023-11-01T06:25:46.528Z,96491.81
2023-11-01T06:28:14.140Z,96487.63
2023-11-01T06:30:42.026Z,96496.50
2023-11-01T06:33:10.071Z,96487.38
2023-11-01T06:35:38.383Z,96495.41
2023-11-01T06:38:06.141Z,96497.56
2023-11-01T06:40:35.371Z,96493.75
2023-11-01T06:43:02.995Z,96498.97
2023-11-01T06:45:30.656Z,96494.56
2023-11-01T06:47:58.362Z,96497.22
2023-11-01T06:50:26.058Z,96496.81
2023-11-01T06:52:53.637Z,96499.84
2023-11-01T06:55:21.272Z,96501.63
2023-11-01T06:57:50.239Z,96500.06
2023-11-01T07:00:17.927Z,96501.63
2023-11-01T07:02:45.622Z,96489.84
2023-11-01T07:05:13.292Z,96498.47
2023-11-01T07:07:40.882Z,96503.97
2023-11-01T07:10:11.449Z,96504.59
2023-11-01T07:12:39.267Z,96495.72
2023-11-01T07:15:11.148Z,96501.03
2023-11-01T07:17:38.877Z,96506.06
2023-11-01T07:20:07.840Z,96509.53
2023-11-01T07:22:35.473Z,96497.56
2023-11-01T07:25:03.242Z,96511.44
2023-11-01T07:27:31.045Z,96509.78
2023-11-01T07:29:58.877Z,96507.91
2023-11-01T07:32:27.855Z,96508.38
2023-11-01T07:34:55.478Z,96506.19
2023-11-01T07:37:23.120Z,96500.13
2023-11-01T07:39:50.725Z,96499.56
2023-11-01T07:42:18.433Z,96497.56
2023-11-01T07:44:46.223Z,96505.03
2023-11-01T07:47:14.735Z,96507.06
2023-11-01T07:49:43.796Z,96495.09
2023-11-01T07:52:11.500Z,96495.84
2023-11-01T07:54:39.091Z,96509.78
2023-11-01T07:57:07.178Z,96504.31
2023-11-01T07:59:34.954Z,96491.66
2023-11-01T08:02:02.648Z,96490.88
2023-11-01T08:04:30.658Z,96494.56
2023-11-01T08:06:59.697Z,96502.19
2023-11-01T08:09:27.640Z,96493.56
2023-11-01T08:11:55.276Z,96495.34
2023-11-01T08:14:22.879Z,96487.53
2023-11-01T08:16:50.557Z,96487.28
2023-11-01T08:19:18.246Z,96484.56
2023-11-01T08:21:45.810Z,96477.91
2023-11-01T08:24:14.825Z,96475.47
2023-11-01T08:26:42.467Z,96476.31
2023-11-01T08:29:10.968Z,96466.13
2023-11-01T08:31:38.692Z,96466.06
2023-11-01T08:34:06.422Z,96456.59
2023-11-01T08:36:34.113Z,96470.69
2023-11-01T08:39:01.716Z,96475.03
2023-11-01T08:41:30.760Z,96463.66
2023-11-01T08:43:58.415Z,96469.78
2023-11-01T08:46:26.074Z,96469.78
2023-11-01T08:48:53.677Z,96472.06
2023-11-01T08:51:21.280Z,96466.47
2023-11-01T08:53:48.970Z,96469.63
2023-11-01T08:56:16.712Z,96471.16
2023-11-01T08:58:45.678Z,96468.66
2023-11-01T09:01:13.828Z,96481.22
2023-11-01T09:03:41.572Z,96471.63
2023-11-01T09:06:10.120Z,96473.13
2023-11-01T09:08:37.892Z,96472.09
2023-11-01T09:11:06.130Z,96462.38
2023-11-01T09:13:33.764Z,96459.69
2023-11-01T09:16:02.715Z,96460.78
2023-11-01T09:18:30.443Z,96448.53
2023-11-01T09:20:58.162Z,96451.50
2023-11-01T09:23:25.846Z,96452.31
2023-11-01T09:25:53.488Z,96449.50
2023-11-01T09:28:21.102Z,96449.94
2023-11-01T09:30:48.676Z,96448.91
2023-11-01T09:33:17.664Z,96453.84
2023-11-01T09:35:45.339Z,96449.69
2023-11-01T09:38:12.998Z,96459.06
2023-11-01T09:40:40.583Z,96466.13
2023-11-01T09:43:09.579Z,96446.56
2023-11-01T09:45:38.017Z,96456.41
2023-11-01T09:48:06.477Z,96456.59
2023-11-01T09:50:39.114Z,96448.88
2023-11-01T09:53:06.790Z,96454.69
2023-11-01T09:55:34.476Z,96460.56
2023-11-01T09:58:02.623Z,96454.13
2023-11-01T10:00:30.801Z,96454.97
2023-11-01T10:02:58.788Z,96462.06
2023-11-01T10:05:26.476Z,96451.38
2023-11-01T10:07:55.485Z,96453.28
2023-11-01T10:10:23.182Z,96465.50
2023-11-01T10:12:50.785Z,96454.63
2023-11-01T10:15:21.618Z,96464.56
2023-11-01T10:17:52.653Z,96457.06
2023-11-01T10:20:26.746Z,96458.56
2023-11-01T10:22:55.957Z,96451.31
2023-11-01T10:25:23.974Z,96464.88
2023-11-01T10:27:52.256Z,96456.00
2023-11-01T10:30:21.688Z,96456.69
2023-11-01T10:32:56.964Z,96457.38
2023-11-01T10:35:25.157Z,96453.06
2023-11-01T10:38:01.288Z,96445.88
2023-11-01T10:40:30.455Z,96428.09
2023-11-01T10:42:59.908Z,96425.91
2023-11-01T10:45:27.919Z,96422.06
2023-11-01T10:47:56.020Z,96415.66
2023-11-01T10:50:24.696Z,96412.75
2023-11-01T10:52:52.814Z,96403.16
2023-11-01T10:55:23.136Z,96408.28
2023-11-01T10:57:52.453Z,96402.81
2023-11-01T11:00:25.376Z,96411.38
2023-11-01T11:02:55.708Z,96396.66
2023-11-01T11:05:28.433Z,96408.47
2023-11-01T11:07:58.006Z,96391.66
2023-11-01T11:10:27.365Z,96390.41
2023-11-01T11:13:26.347Z,96393.22
2023-11-01T11:16:00.497Z,96380.97
2023-11-01T11:18:30.493Z,96372.09
2023-11-01T11:20:59.949Z,96375.84
2023-11-01T11:23:34.378Z,96368.16
2023-11-01T11:26:04.859Z,96365.97
2023-11-01T11:28:43.757Z,96361.94
2023-11-01T11:31:14.151Z,96346.78
2023-11-01T11:34:13.696Z,96341.78
2023-11-01T11:37:05.771Z,96334.69
2023-11-01T11:40:08.998Z,96321.78
2023-11-01T11:42:50.815Z,96324.25
2023-11-01T11:45:29.076Z,96318.34
2023-11-01T11:47:57.174Z,96306.41
2023-11-01T11:50:25.015Z,96303.78
2023-11-01T11:52:52.723Z,96293.56
2023-11-01T11:55:41.665Z,96288.78
2023-11-01T11:58:10.696Z,96286.63
2023-11-01T12:00:38.374Z,96279.31
2023-11-01T12:03:06.109Z,96279.59
2023-11-01T12:05:35.155Z,96272.59
2023-11-01T12:08:04.485Z,96270.41
2023-11-01T12:10:32.098Z,96271.16
2023-11-01T12:12:59.853Z,96253.09
2023-11-01T12:15:30.747Z,96250.91
2023-11-01T12:18:12.445Z,96245.09
2023-11-01T12:20:40.184Z,96247.97
2023-11-01T12:23:08.707Z,96241.56
2023-11-01T12:25:36.475Z,96244.19
2023-11-01T12:28:04.347Z,96229.19
2023-11-01T12:30:34.160Z,96230.16
2023-11-01T12:33:01.867Z,96231.50
2023-11-01T12:35:29.613Z,96227.41
2023-11-01T12:37:57.353Z,96231.09
2023-11-01T12:40:27.188Z,96219.38
2023-11-01T12:43:08.188Z,96221.50
2023-11-01T12:45:37.134Z,96213.00
2023-11-01T12:48:06.272Z,96212.50
2023-11-01T12:50:36.451Z,96206.00
2023-11-01T12:53:04.349Z,96205.09
2023-11-01T12:55:34.238Z,96194.22
2023-11-01T12:58:02.746Z,96199.53
2023-11-01T13:00:31.710Z,96194.50
2023-11-01T13:03:03.114Z,96201.50
2023-11-01T13:05:31.197Z,96184.75
2023-11-01T13:08:01.839Z,96182.63
2023-11-01T13:10:30.232Z,96190.94
2023-11-01T13:12:57.834Z,96186.66
2023-11-01T13:15:26.267Z,96186.25
2023-11-01T13:17:54.249Z,96176.13
2023-11-01T13:20:23.372Z,96170.69
2023-11-01T13:22:52.705Z,96173.09
2023-11-01T13:25:21.703Z,96175.88
2023-11-01T13:27:49.332Z,96168.28
2023-11-01T13:30:17.083Z,96161.53
2023-11-01T13:32:44.916Z,96161.22
2023-11-01T13:35:12.638Z,96157.31
2023-11-01T13:37:41.556Z,96158.66
2023-11-01T13:40:11.634Z,96160.09
2023-11-01T13:42:39.243Z,96156.25
2023-11-01T13:45:08.233Z,96154.56
2023-11-01T13:47:36.466Z,96149.22
2023-11-01T13:50:04.350Z,96149.59
2023-11-01T13:52:31.951Z,96146.53
2023-11-01T13:55:01.089Z,96142.91
2023-11-01T13:57:30.504Z,96138.69
2023-11-01T13:59:58.166Z,96132.63
2023-11-01T14:02:25.785Z,96125.88
2023-11-01T14:04:53.411Z,96127.81
2023-11-01T14:07:21.028Z,96115.50
2023-11-01T14:09:49.206Z,96121.69
2023-11-01T14:12:18.245Z,96116.28
2023-11-01T14:14:45.859Z,96110.00
2023-11-01T14:17:16.237Z,96103.25
2023-11-01T14:19:44.041Z,96107.25
2023-11-01T14:22:11.644Z,96100.28
2023-11-01T14:24:39.926Z,96098.06
2023-11-01T14:27:07.610Z,96095.47
2023-11-01T14:29:36.713Z,96093.19
2023-11-01T14:32:06.945Z,96089.44
2023-11-01T14:34:34.604Z,96100.97
2023-11-01T14:37:02.876Z,96088.97
2023-11-01T14:39:30.392Z,96097.09
2023-11-01T14:41:58.005Z,96091.44
2023-11-01T14:44:25.575Z,96099.69
2023-11-01T14:46:54.553Z,96094.63
2023-11-01T14:49:22.122Z,96092.63
2023-11-01T14:51:49.803Z,96082.34
2023-11-01T14:54:17.463Z,96083.66
2023-11-01T14:56:46.033Z,96079.47
2023-11-01T14:59:13.735Z,96076.41
2023-11-01T15:01:42.413Z,96079.44
2023-11-01T15:04:11.629Z,96084.34
2023-11-01T15:06:39.248Z,96075.81
2023-11-01T15:09:07.644Z,96073.78
2023-11-01T15:11:35.951Z,96076.00
2023-11-01T15:14:03.666Z,96066.44
2023-11-01T15:16:32.431Z,96066.22
2023-11-01T15:19:00.085Z,96063.19
2023-11-01T15:21:29.738Z,96058.28
2023-11-01T15:23:58.233Z,96059.19
2023-11-01T15:26:26.848Z,96068.88
2023-11-01T15:28:54.853Z,96073.16
2023-11-01T15:31:22.537Z,96071.13
2023-11-01T15:33:50.359Z,96071.41
2023-11-01T15:36:19.663Z,96057.22
2023-11-01T15:38:48.667Z,96063.94
2023-11-01T15:41:16.531Z,96073.22
2023-11-01T15:43:44.211Z,96076.84
2023-11-01T15:46:11.879Z,96072.69
2023-11-01T15:48:42.028Z,96064.88
2023-11-01T15:51:12.755Z,96063.88
2023-11-01T15:53:40.880Z,96055.06
2023-11-01T15:56:11.395Z,96039.94
2023-11-01T15:58:39.970Z,96035.13
2023-11-01T16:01:07.670Z,96039.44
2023-11-01T16:03:35.421Z,96032.25
2023-11-01T16:06:03.260Z,96027.09
2023-11-01T16:08:30.877Z,96035.03
2023-11-01T16:10:58.558Z,96036.38
2023-11-01T16:13:28.712Z,96035.88
2023-11-01T16:15:56.485Z,96035.88
2023-11-01T16:18:24.228Z,96043.94
2023-11-01T16:20:51.942Z,96034.78
2023-11-01T16:23:19.719Z,96032.28
2023-11-01T16:25:47.523Z,96036.50
2023-11-01T16:28:15.240Z,96035.16
2023-11-01T16:30:44.255Z,96032.91
2023-11-01T16:33:11.906Z,96038.47
2023-11-01T16:35:39.691Z,96042.53
2023-11-01T16:38:06.707Z,96037.34
2023-11-01T16:40:34.364Z,96033.88
2023-11-01T16:43:02.697Z,96034.25
2023-11-01T16:45:30.353Z,96025.34
2023-11-01T16:47:59.445Z,96031.47
2023-11-01T16:50:27.121Z,96028.69
2023-11-01T16:52:55.881Z,96020.81
2023-11-01T16:55:23.518Z,96023.22
2023-11-01T16:57:51.788Z,96024.59
2023-11-01T17:00:19.597Z,96022.94
2023-11-01T17:02:50.772Z,96028.50
2023-11-01T17:05:20.362Z,96013.47
2023-11-01T17:07:48.090Z,96015.00
2023-11-01T17:10:15.913Z,96018.03
2023-11-01T17:12:43.486Z,96015.97
2023-11-01T17:15:11.853Z,96012.88
2023-11-01T17:17:42.933Z,96017.84
2023-11-01T17:20:12.621Z,96012.59
2023-11-01T17:22:56.519Z,96013.19
2023-11-01T17:26:12.693Z,96027.31
2023-11-01T17:28:40.706Z,96019.22
2023-11-01T17:31:11.391Z,96021.84
2023-11-01T17:33:40.973Z,96013.47
2023-11-01T17:36:21.042Z,96020.56
2023-11-01T17:38:50.158Z,96018.28
2023-11-01T17:41:57.279Z,96027.00
2023-11-01T17:44:27.371Z,96028.00
2023-11-01T17:46:56.424Z,96024.78
2023-11-01T17:49:57.981Z,96020.50
2023-11-01T17:52:28.437Z,96010.97
2023-11-01T17:54:58.076Z,96013.97
2023-11-01T17:57:25.864Z,96010.22
2023-11-01T17:59:53.674Z,96000.44
2023-11-01T18:03:04.077Z,96009.25
2023-11-01T18:05:36.667Z,95998.69
2023-11-01T18:08:10.525Z,96052.31
2023-11-01T18:10:42.849Z,96000.38
2023-11-01T18:13:22.383Z,95991.13
2023-11-01T18:15:51.122Z,95996.44
2023-11-01T18:18:42.390Z,95986.97
2023-11-01T18:21:11.659Z,95992.09
2023-11-01T18:23:41.144Z,95998.63
2023-11-01T18:26:17.403Z,95996.00
2023-11-01T18:28:45.992Z,96006.72
2023-11-01T18:31:22.992Z,95990.56
2023-11-01T18:34:01.176Z,95991.03
2023-11-01T18:36:30.029Z,96002.53
2023-11-01T18:38:58.560Z,96000.16
2023-11-01T18:41:29.207Z,96029.97
2023-11-01T18:43:56.904Z,96036.41
2023-11-01T18:46:25.333Z,96043.63
2023-11-01T18:48:56.130Z,96053.03
2023-11-01T18:51:43.292Z,96043.34
2023-11-01T18:54:11.182Z,96044.31
2023-11-01T18:56:41.998Z,96054.28
2023-11-01T18:59:10.525Z,96059.09
2023-11-01T19:01:41.390Z,96057.13
2023-11-01T19:04:10.297Z,96050.44
2023-11-01T19:06:39.124Z,96053.88
2023-11-01T19:09:06.855Z,96052.13
2023-11-01T19:11:34.747Z,96053.75
2023-11-01T19:14:03.677Z,96068.13
2023-11-01T19:16:31.249Z,96065.00
2023-11-01T19:18:58.901Z,96064.28
2023-11-01T19:21:26.561Z,96063.31
2023-11-01T19:23:54.255Z,96062.59
2023-11-01T19:26:22.460Z,96057.66
2023-11-01T19:28:50.541Z,96061.03
2023-11-01T19:31:21.967Z,96064.63
2023-11-01T19:33:53.161Z,96049.56
2023-11-01T19:36:21.287Z,96039.97
2023-11-01T19:38:49.036Z,96038.03
2023-11-01T19:41:17.777Z,96039.97
2023-11-01T19:43:45.617Z,96041.38
2023-11-01T19:46:13.301Z,96015.31
2023-11-01T19:48:43.038Z,96030.84
2023-11-01T19:51:11.457Z,96015.34
2023-11-01T19:53:39.065Z,96020.59
2023-11-01T19:56:06.863Z,96028.06
2023-11-01T19:58:34.493Z,96042.75
2023-11-01T20:01:02.168Z,96036.91
2023-11-01T20:03:29.863Z,96040.25
2023-11-01T20:05:59.516Z,96036.75
2023-11-01T20:08:27.159Z,96033.84
2023-11-01T20:10:54.846Z,96036.56
2023-11-01T20:13:22.435Z,96030.16
2023-11-01T20:15:50.009Z,96032.41
2023-11-01T20:18:17.744Z,96019.09
2023-11-01T20:20:45.448Z,96013.63
2023-11-01T20:23:15.466Z,96017.13
2023-11-01T20:25:43.248Z,96019.03
2023-11-01T20:28:18.103Z,96019.34
2023-11-01T20:30:46.059Z,96014.63
2023-11-01T20:33:13.879Z,96013.50
2023-11-01T20:35:41.639Z,96006.59
2023-11-01T20:38:09.480Z,96007.97
2023-11-01T20:40:38.502Z,96013.00
2023-11-01T20:43:06.126Z,96007.91
2023-11-01T20:45:38.326Z,95996.38
2023-11-01T20:48:08.373Z,95994.75
2023-11-01T20:50:36.206Z,95991.41
2023-11-01T20:53:04.186Z,95989.41
2023-11-01T20:55:31.798Z,95987.25
2023-11-01T20:58:00.733Z,95989.41
2023-11-01T21:00:28.380Z,95977.34
2023-11-01T21:02:56.393Z,95975.97
2023-11-01T21:05:24.145Z,95975.41
2023-11-01T21:07:52.518Z,95969.06
2023-11-01T21:10:20.429Z,95967.53
2023-11-01T21:12:48.181Z,95966.56
2023-11-01T21:15:17.217Z,95964.31
2023-11-01T21:17:45.125Z,95952.16
2023-11-01T21:20:13.519Z,95949.34
2023-11-01T21:22:41.720Z,95940.34
2023-11-01T21:25:10.837Z,95937.59
2023-11-01T21:27:38.482Z,95924.00
2023-11-01T21:30:07.172Z,95918.34
2023-11-01T21:32:36.100Z,95917.19
2023-11-01T21:35:04.291Z,95926.09
2023-11-01T21:37:31.888Z,95912.63
2023-11-01T21:39:59.504Z,95905.16
2023-11-01T21:42:27.749Z,95905.03
2023-11-01T21:44:55.360Z,95894.94
2023-11-01T21:47:25.610Z,95903.91
2023-11-01T21:49:54.609Z,95893.13
2023-11-01T21:52:23.470Z,95873.31
2023-11-01T21:54:52.244Z,95876.78
2023-11-01T21:57:24.219Z,95869.00
2023-11-01T21:59:51.881Z,95863.19
2023-11-01T22:02:28.465Z,95854.59
2023-11-01T22:04:57.439Z,95863.19
2023-11-01T22:07:25.172Z,95852.94
2023-11-01T22:09:56.690Z,95863.59
2023-11-01T22:12:24.316Z,95859.53
2023-11-01T22:14:52.211Z,95839.91
2023-11-01T22:17:37.520Z,95842.56
2023-11-01T22:20:09.400Z,95833.97
2023-11-01T22:22:51.213Z,95839.66
2023-11-01T22:25:27.573Z,95837.72
2023-11-01T22:28:00.220Z,95821.78
2023-11-01T22:30:29.708Z,95826.34
2023-11-01T22:32:57.842Z,95786.72
2023-11-01T22:35:36.858Z,95807.66
2023-11-01T22:38:04.457Z,95808.06
2023-11-01T22:40:33.572Z,95806.00
2023-11-01T22:43:01.271Z,95806.66
2023-11-01T22:45:28.881Z,95806.66
2023-11-01T22:47:56.649Z,95803.19
2023-11-01T22:50:24.285Z,95799.47
2023-11-01T22:52:53.611Z,95790.06
2023-11-01T22:55:21.269Z,95790.19
2023-11-01T22:57:48.867Z,95781.88
2023-11-01T23:00:29.002Z,95791.16
2023-11-01T23:02:58.737Z,95777.31
2023-11-01T23:05:26.786Z,95781.75
2023-11-01T23:07:57.371Z,95770.41
2023-11-01T23:10:25.833Z,95759.06
2023-11-01T23:12:53.726Z,95760.56
2023-11-01T23:15:21.314Z,95749.91
2023-11-01T23:17:50.255Z,95742.16
2023-11-01T23:20:22.791Z,95746.28
2023-11-01T23:22:53.182Z,95733.97
2023-11-01T23:25:27.904Z,95728.84
2023-11-01T23:27:59.638Z,95724.84
2023-11-01T23:30:41.775Z,95719.16
2023-11-01T23:33:09.448Z,95720.84
2023-11-01T23:35:45.099Z,95717.22
2023-11-01T23:38:14.507Z,95703.72
2023-11-01T23:40:45.780Z,95710.91
2023-11-01T23:43:14.114Z,95723.88
2023-11-01T23:46:17.087Z,95697.31
2023-11-01T23:48:45.531Z,95689.28
2023-11-01T23:51:13.550Z,95683.19
2023-11-01T23:53:42.194Z,95670.69
2023-11-01T23:56:23.982Z,95660.75
2023-11-01T23:58:53.986Z,95659.22
